8VA0 weather

Mcv Heliport
Richmond, Virginia, United States

Public forecast

Using degrees Fahrenheit for public forecast. Weather courtesy of forecast.io.

METAR (pilot weather report)

Closest report is Richmond International Airport, 5.9 nm (11.0 km) ESE. Retrieved 2019/01/17 16:54 UTC (49 minutes ago):

KRIC 171654Z 09009KT 10SM BKN043 BKN160 OVC300 04/M02 A3033 RMK AO2 PRESFR SLP276 T00441022

TAF (pilot weather forecast)

Closest forecast is Richmond International Airport, 5.9 nm (11.0 km) ESE. Retrieved 2019/01/17 12:22 UTC (5 hours ago):

TAF KRIC 171120Z 1712/1812 00000KT P6SM BKN045 FM171400 05004KT P6SM BKN080 FM172200 13004KT P6SM OVC060 FM180200 16004KT 6SM -RA OVC060 FM180500 17005KT 6SM -RA OVC030 FM180700 20005KT P6SM OVC025